• pl
  • eng

Awiacja
Military airports TAF 01:00 01.01.1970

TAF EPCE 230500Z 2306/2315 16008KT 5000 BR NSC BECMG 2308/2310 CAVOK
=

TAF EPCE 230800Z 2309/2318 16008KT 5000 BR NSC BECMG 2309/2311 CAVOK=

TAF AMD EPDA 230657Z 2306/2315 10006KT 6000 NSC TEMPO 2306/2308 4000
BR =
587
FCPL98 SOPR 230500 AAF

TAF EPDA 230800Z 2309/2318 08006KT 7000 NSC=

TAF EPDE 230500Z 2306/2315 08010KT 5000 BR SCT025 BECMG 2307/2309
9999 BECMG 2311/2312 BKN030=

TAF EPDE 230800Z 2309/2318 08010KT 9999 BKN020
BECMG 2316/2317 BKN012=

TAF EPIR 230500Z 2306/2315 07008KT 2200 BR NSC TEMPO 2307/2311 1000
BR BKN003 BECMG 2311/2313 11014KT 6000 BKN017 =

TAF EPIR 230800Z 2309/2318 08010KT 3000 BR BKN021 PROB40 2309/2312
BKN004 BECMG 2312/1214 11014KT 6000=

TAF EPKS 230500Z 2306/2315 09010KT 5000 BR BKN017
TEMPO 2309/2315 8000 SCT020=

TAF EPKS 230800Z 2309/2318 09012KT 8000 BKN015=

TAF EPLY 230500Z 2306/2315 08008KT 8000 BKN023 PROB40 TEMPO 2306/2309
4000 BR BKN013=

TAF EPLY 230800Z 2309/2318 09010KT 9999 BKN017=

TAF EPMB 230500Z 2306/2315 11006KT 2500 BR NSC PROB40 2306/2308 2000
BR SCT005 BECMG 2309/2311 6000 SCT020=

TAF EPMB 230800Z 2309/2318 11008KT 4000 BR NSC BECMG 2310/2312 6000
SCT020 PROB40 2314/2318 BKN020=

TAF EPMI 230500Z 2306/2315 12010KT 2500 BR NSC
BECMG 2307/2309 7000
PROB40 2309/2315 BKN020=

TAF EPMI 230800Z 2309/2318 12010KT 8000 BKN015
TEMPO 2312/2316 9999 SCT020
PROB40 TEMPO 2316/2318 09006KT 4000 BR=

TAF EPMM 230500Z 2306/2315 09008KT 9999 BKN025 PROB40 2306/2308 5000
BR BKN014=

TAF COR EPMM 230800Z 2309/2318 09010KT 9999 BKN020 TEMPO 2309/2312
BKN010=

TAF EPMM 230800Z 2309/2318 09010KT 9999 BKN020=

TAF COR EPMM 230800Z 2309/2318 09010KT 9999 BKN020 TEMPO 2309/2312
BKN010 =

TAF AMD EPOK 230618Z 2306/2315 14008KT 7000 BR NSC TEMPO 2306/2308
4000 BR BECMG 2308/2310 CAVOK =

TAF EPOK 230800Z 2309/2318 14008KT CAVOK=

TAF AMD EPPR 230605Z 2306/2315 10008KT 2000 BR NSC BECMG 2308/2310
6000=

TAF EPPR 230800Z 2309/2318 10003KT 3000 BR NSC BECMG 2310/2312 6000=

TAF EPPW 230500Z 2306/2315 09008KT 5000 BR BKN015
BECMG 2308/2310 8000=

TAF EPPW 230800Z 2309/2318 10010KT 9999 BKN017 TEMPO 2312/2318
BKN025=

TAF AMD EPRA 230700Z 2306/2315 CNL=

TAF EPSN 230500Z 2306/2315 14010KT 8000 NSC
TEMPO 2306/2307 3000 BR SCT006
PROB40 2310/2315 BKN015=

TAF EPSN 230800Z 2309/2318 13010KT 8000 NSC
BECMG 2310/2312 BKN015=

TAF EPTM 230500Z 2306/2315 08008KT 9999 BKN020 PROB40 TEMPO 2306/2309
4000 BR BKN010=

TAF EPTM 230800Z 2309/2318 08012KT 9999 OVC020 PROB40 2313/2316 -SN
SCT015 BKN026=
Awiacja.imgw.pl jest pogodowym serwisem informacyjnym
Instytutu Meteorologii i Gospodarki Wodnej Państwowego Instytutu Badawczego.
Copyright IMGW PIB 2009-2011© Wszelkie prawa zastrzeżone.